sensor_id;sensor_type;location;lat;lon;timestamp;pressure;altitude;pressure_sealevel;temperature;humidity
66381;BME280;53177;52.648;1.214;2022-11-20T00:00:45;100702.91;;;1.46;100.00
66381;BME280;53177;52.648;1.214;2022-11-20T00:03:10;100708.16;;;1.39;100.00
66381;BME280;53177;52.648;1.214;2022-11-20T00:05:36;100694.28;;;1.37;100.00
66381;BME280;53177;52.648;1.214;2022-11-20T00:08:01;100692.53;;;1.44;100.00
66381;BME280;53177;52.648;1.214;2022-11-20T00:10:27;100693.59;;;1.50;100.00
66381;BME280;53177;52.648;1.214;2022-11-20T00:12:52;100699.78;;;1.57;100.00
66381;BME280;53177;52.648;1.214;2022-11-20T00:15:18;100689.00;;;1.59;100.00
66381;BME280;53177;52.648;1.214;2022-11-20T00:17:43;100685.56;;;1.65;100.00
66381;BME280;53177;52.648;1.214;2022-11-20T00:20:09;100681.13;;;1.65;100.00
66381;BME280;53177;52.648;1.214;2022-11-20T00:22:35;100691.06;;;1.63;100.00
66381;BME280;53177;52.648;1.214;2022-11-20T00:25:00;100685.97;;;1.62;100.00
66381;BME280;53177;52.648;1.214;2022-11-20T00:27:26;100687.94;;;1.74;100.00
66381;BME280;53177;52.648;1.214;2022-11-20T00:29:51;100688.16;;;1.80;100.00
66381;BME280;53177;52.648;1.214;2022-11-20T00:32:16;100689.81;;;1.81;100.00
66381;BME280;53177;52.648;1.214;2022-11-20T00:34:42;100674.97;;;1.86;100.00
66381;BME280;53177;52.648;1.214;2022-11-20T00:37:07;100668.28;;;1.90;100.00
66381;BME280;53177;52.648;1.214;2022-11-20T00:39:33;100676.41;;;1.89;100.00
66381;BME280;53177;52.648;1.214;2022-11-20T00:41:58;100675.16;;;1.85;100.00
66381;BME280;53177;52.648;1.214;2022-11-20T00:44:23;100678.06;;;1.90;100.00
66381;BME280;53177;52.648;1.214;2022-11-20T00:46:49;100676.03;;;1.92;100.00
66381;BME280;53177;52.648;1.214;2022-11-20T00:49:14;100675.28;;;1.98;100.00
66381;BME280;53177;52.648;1.214;2022-11-20T00:51:40;100668.56;;;2.02;100.00
66381;BME280;53177;52.648;1.214;2022-11-20T00:54:05;100671.47;;;2.07;100.00
66381;BME280;53177;52.648;1.214;2022-11-20T00:56:30;100669.44;;;2.09;100.00
66381;BME280;53177;52.648;1.214;2022-11-20T00:58:59;100672.13;;;2.16;100.00
66381;BME280;53177;52.648;1.214;2022-11-20T01:01:26;100666.84;;;2.16;100.00
66381;BME280;53177;52.648;1.214;2022-11-20T01:03:53;100668.91;;;2.20;100.00
66381;BME280;53177;52.648;1.214;2022-11-20T01:06:22;100663.22;;;2.23;100.00
66381;BME280;53177;52.648;1.214;2022-11-20T01:08:49;100658.16;;;2.28;100.00
66381;BME280;53177;52.648;1.214;2022-11-20T01:11:41;100658.56;;;2.32;100.00
66381;BME280;53177;52.648;1.214;2022-11-20T01:14:13;100655.72;;;2.34;100.00
66381;BME280;53177;52.648;1.214;2022-11-20T01:16:42;100651.03;;;2.36;100.00
66381;BME280;53177;52.648;1.214;2022-11-20T01:19:12;100657.59;;;2.40;100.00
66381;BME280;53177;52.648;1.214;2022-11-20T01:21:39;100654.75;;;2.41;100.00
66381;BME280;53177;52.648;1.214;2022-11-20T01:24:07;100642.53;;;2.47;100.00
66381;BME280;53177;52.648;1.214;2022-11-20T01:26:35;100640.13;;;2.52;100.00
66381;BME280;53177;52.648;1.214;2022-11-20T01:29:03;100635.84;;;2.51;100.00
66381;BME280;53177;52.648;1.214;2022-11-20T01:31:38;100636.06;;;2.56;100.00
66381;BME280;53177;52.648;1.214;2022-11-20T01:34:06;100634.00;;;2.58;100.00
66381;BME280;53177;52.648;1.214;2022-11-20T01:36:33;100629.34;;;2.60;100.00
66381;BME280;53177;52.648;1.214;2022-11-20T01:39:05;100628.53;;;2.60;100.00
66381;BME280;53177;52.648;1.214;2022-11-20T01:41:32;100632.00;;;2.60;100.00
66381;BME280;53177;52.648;1.214;2022-11-20T01:44:20;100627.13;;;2.64;100.00
66381;BME280;53177;52.648;1.214;2022-11-20T01:47:01;100614.66;;;2.64;100.00
66381;BME280;53177;52.648;1.214;2022-11-20T01:49:37;100621.41;;;2.67;100.00
66381;BME280;53177;52.648;1.214;2022-11-20T01:52:18;100606.94;;;2.69;100.00
66381;BME280;53177;52.648;1.214;2022-11-20T01:54:52;100610.34;;;2.63;100.00
66381;BME280;53177;52.648;1.214;2022-11-20T01:57:20;100610.59;;;2.68;100.00
66381;BME280;53177;52.648;1.214;2022-11-20T01:59:54;100603.25;;;2.64;100.00
66381;BME280;53177;52.648;1.214;2022-11-20T02:02:22;100594.47;;;2.70;100.00
66381;BME280;53177;52.648;1.214;2022-11-20T02:04:51;100593.44;;;2.64;100.00
66381;BME280;53177;52.648;1.214;2022-11-20T02:07:19;100587.31;;;2.64;100.00
66381;BME280;53177;52.648;1.214;2022-11-20T02:09:46;100599.75;;;2.63;100.00
66381;BME280;53177;52.648;1.214;2022-11-20T02:12:11;100579.75;;;2.67;100.00
66381;BME280;53177;52.648;1.214;2022-11-20T02:14:56;100572.81;;;2.66;100.00
66381;BME280;53177;52.648;1.214;2022-11-20T02:17:23;100567.13;;;2.69;100.00
66381;BME280;53177;52.648;1.214;2022-11-20T02:19:49;100563.06;;;2.73;100.00
66381;BME280;53177;52.648;1.214;2022-11-20T02:22:19;100563.50;;;2.77;100.00
66381;BME280;53177;52.648;1.214;2022-11-20T02:24:47;100545.09;;;2.75;100.00
66381;BME280;53177;52.648;1.214;2022-11-20T02:27:15;100548.19;;;2.79;100.00
66381;BME280;53177;52.648;1.214;2022-11-20T02:29:53;100551.25;;;2.83;100.00
66381;BME280;53177;52.648;1.214;2022-11-20T02:32:23;100549.84;;;2.87;100.00
66381;BME280;53177;52.648;1.214;2022-11-20T02:34:49;100545.34;;;2.87;100.00
66381;BME280;53177;52.648;1.214;2022-11-20T02:37:15;100539.81;;;2.89;100.00
66381;BME280;53177;52.648;1.214;2022-11-20T02:39:41;100532.50;;;2.91;100.00
66381;BME280;53177;52.648;1.214;2022-11-20T02:42:07;100535.53;;;2.94;100.00
66381;BME280;53177;52.648;1.214;2022-11-20T02:44:32;100538.00;;;2.96;100.00
66381;BME280;53177;52.648;1.214;2022-11-20T02:46:58;100539.84;;;2.95;100.00
66381;BME280;53177;52.648;1.214;2022-11-20T02:49:24;100539.41;;;2.98;100.00
66381;BME280;53177;52.648;1.214;2022-11-20T02:51:49;100536.59;;;3.00;100.00
66381;BME280;53177;52.648;1.214;2022-11-20T02:54:15;100530.66;;;3.04;100.00
66381;BME280;53177;52.648;1.214;2022-11-20T02:56:40;100522.50;;;3.06;100.00
66381;BME280;53177;52.648;1.214;2022-11-20T02:59:06;100514.53;;;3.06;100.00
66381;BME280;53177;52.648;1.214;2022-11-20T03:01:32;100509.41;;;3.11;100.00
66381;BME280;53177;52.648;1.214;2022-11-20T03:03:57;100504.75;;;3.13;100.00
66381;BME280;53177;52.648;1.214;2022-11-20T03:06:23;100499.00;;;3.16;100.00
66381;BME280;53177;52.648;1.214;2022-11-20T03:08:48;100502.28;;;3.18;100.00
66381;BME280;53177;52.648;1.214;2022-11-20T03:11:14;100492.88;;;3.22;100.00
66381;BME280;53177;52.648;1.214;2022-11-20T03:13:39;100490.44;;;3.27;100.00
66381;BME280;53177;52.648;1.214;2022-11-20T03:16:13;100489.81;;;3.25;100.00
66381;BME280;53177;52.648;1.214;2022-11-20T03:18:40;100478.19;;;3.26;100.00
66381;BME280;53177;52.648;1.214;2022-11-20T03:21:07;100487.97;;;3.33;100.00
66381;BME280;53177;52.648;1.214;2022-11-20T03:23:33;100478.56;;;3.30;100.00
66381;BME280;53177;52.648;1.214;2022-11-20T03:26:19;100472.88;;;3.40;100.00
66381;BME280;53177;52.648;1.214;2022-11-20T03:28:52;100474.88;;;3.38;100.00
66381;BME280;53177;52.648;1.214;2022-11-20T03:31:23;100476.72;;;3.37;100.00
66381;BME280;53177;52.648;1.214;2022-11-20T03:33:49;100472.66;;;3.41;100.00
66381;BME280;53177;52.648;1.214;2022-11-20T03:36:17;100473.47;;;3.42;100.00
66381;BME280;53177;52.648;1.214;2022-11-20T03:38:42;100464.91;;;3.40;100.00
66381;BME280;53177;52.648;1.214;2022-11-20T03:41:14;100463.06;;;3.40;100.00
66381;BME280;53177;52.648;1.214;2022-11-20T03:43:40;100460.41;;;3.40;100.00
66381;BME280;53177;52.648;1.214;2022-11-20T03:46:06;100454.28;;;3.40;100.00
66381;BME280;53177;52.648;1.214;2022-11-20T03:48:32;100452.22;;;3.42;100.00
66381;BME280;53177;52.648;1.214;2022-11-20T03:51:12;100447.94;;;3.41;100.00
66381;BME280;53177;52.648;1.214;2022-11-20T03:53:40;100448.75;;;3.41;100.00
66381;BME280;53177;52.648;1.214;2022-11-20T03:56:06;100433.22;;;3.45;100.00
66381;BME280;53177;52.648;1.214;2022-11-20T03:58:33;100434.84;;;3.46;100.00
66381;BME280;53177;52.648;1.214;2022-11-20T04:03:33;100416.66;;;3.43;100.00
66381;BME280;53177;52.648;1.214;2022-11-20T04:06:06;100416.25;;;3.46;100.00
66381;BME280;53177;52.648;1.214;2022-11-20T04:08:32;100410.34;;;3.44;100.00
66381;BME280;53177;52.648;1.214;2022-11-20T04:11:08;100403.38;;;3.43;100.00
66381;BME280;53177;52.648;1.214;2022-11-20T04:13:34;100405.03;;;3.44;100.00
66381;BME280;53177;52.648;1.214;2022-11-20T04:15:59;100401.97;;;3.40;100.00
66381;BME280;53177;52.648;1.214;2022-11-20T04:18:25;100400.13;;;3.41;100.00
66381;BME280;53177;52.648;1.214;2022-11-20T04:20:50;100399.31;;;3.40;100.00
66381;BME280;53177;52.648;1.214;2022-11-20T04:23:16;100396.44;;;3.42;100.00
66381;BME280;53177;52.648;1.214;2022-11-20T04:25:41;100400.53;;;3.44;100.00
66381;BME280;53177;52.648;1.214;2022-11-20T04:28:07;100402.13;;;3.52;100.00
66381;BME280;53177;52.648;1.214;2022-11-20T04:30:32;100399.28;;;3.47;100.00
66381;BME280;53177;52.648;1.214;2022-11-20T04:32:57;100397.66;;;3.46;100.00
66381;BME280;53177;52.648;1.214;2022-11-20T04:35:23;100395.59;;;3.48;100.00
66381;BME280;53177;52.648;1.214;2022-11-20T04:37:51;100392.31;;;3.52;100.00
66381;BME280;53177;52.648;1.214;2022-11-20T04:40:17;100392.53;;;3.51;100.00
66381;BME280;53177;52.648;1.214;2022-11-20T04:42:43;100394.78;;;3.54;100.00
66381;BME280;53177;52.648;1.214;2022-11-20T04:45:08;100394.16;;;3.52;100.00
66381;BME280;53177;52.648;1.214;2022-11-20T04:47:34;100393.16;;;3.53;100.00
66381;BME280;53177;52.648;1.214;2022-11-20T04:49:59;100391.09;;;3.55;100.00
66381;BME280;53177;52.648;1.214;2022-11-20T04:52:24;100382.53;;;3.53;100.00
66381;BME280;53177;52.648;1.214;2022-11-20T04:54:50;100371.25;;;3.58;100.00
66381;BME280;53177;52.648;1.214;2022-11-20T04:57:18;100375.53;;;3.59;100.00
66381;BME280;53177;52.648;1.214;2022-11-20T04:59:44;100377.97;;;3.60;100.00
66381;BME280;53177;52.648;1.214;2022-11-20T05:02:10;100374.28;;;3.61;100.00
66381;BME280;53177;52.648;1.214;2022-11-20T05:04:35;100365.06;;;3.70;100.00
66381;BME280;53177;52.648;1.214;2022-11-20T05:07:00;100361.41;;;3.71;100.00
66381;BME280;53177;52.648;1.214;2022-11-20T05:09:26;100354.88;;;3.67;100.00
66381;BME280;53177;52.648;1.214;2022-11-20T05:11:51;100343.22;;;3.68;100.00
66381;BME280;53177;52.648;1.214;2022-11-20T05:14:17;100352.38;;;3.72;100.00
66381;BME280;53177;52.648;1.214;2022-11-20T05:16:42;100353.44;;;3.71;100.00
66381;BME280;53177;52.648;1.214;2022-11-20T05:19:08;100352.16;;;3.74;100.00
66381;BME280;53177;52.648;1.214;2022-11-20T05:21:33;100354.81;;;3.80;100.00
66381;BME280;53177;52.648;1.214;2022-11-20T05:23:58;100350.53;;;3.79;100.00
66381;BME280;53177;52.648;1.214;2022-11-20T05:26:24;100345.22;;;3.79;100.00
66381;BME280;53177;52.648;1.214;2022-11-20T05:28:50;100336.59;;;3.84;100.00
66381;BME280;53177;52.648;1.214;2022-11-20T05:31:21;100338.63;;;3.89;100.00
66381;BME280;53177;52.648;1.214;2022-11-20T05:33:47;100332.69;;;3.87;100.00
66381;BME280;53177;52.648;1.214;2022-11-20T05:36:13;100325.91;;;3.91;100.00
66381;BME280;53177;52.648;1.214;2022-11-20T05:38:40;100320.59;;;3.91;100.00
66381;BME280;53177;52.648;1.214;2022-11-20T05:41:12;100309.94;;;3.97;100.00
66381;BME280;53177;52.648;1.214;2022-11-20T05:43:39;100315.25;;;3.97;100.00
66381;BME280;53177;52.648;1.214;2022-11-20T05:46:06;100306.25;;;3.98;100.00
66381;BME280;53177;52.648;1.214;2022-11-20T05:48:33;100299.69;;;4.01;100.00
66381;BME280;53177;52.648;1.214;2022-11-20T05:51:00;100300.88;;;4.05;100.00
66381;BME280;53177;52.648;1.214;2022-11-20T05:53:26;100291.66;;;4.08;100.00
66381;BME280;53177;52.648;1.214;2022-11-20T05:55:59;100287.97;;;4.09;100.00
66381;BME280;53177;52.648;1.214;2022-11-20T05:58:25;100296.34;;;4.12;100.00
66381;BME280;53177;52.648;1.214;2022-11-20T06:00:51;100295.91;;;4.15;100.00
66381;BME280;53177;52.648;1.214;2022-11-20T06:03:16;100288.75;;;4.16;100.00
66381;BME280;53177;52.648;1.214;2022-11-20T06:05:41;100300.38;;;4.21;100.00
66381;BME280;53177;52.648;1.214;2022-11-20T06:08:07;100308.94;;;4.23;100.00
66381;BME280;53177;52.648;1.214;2022-11-20T06:10:32;100303.03;;;4.21;100.00
66381;BME280;53177;52.648;1.214;2022-11-20T06:12:58;100299.16;;;4.17;100.00
66381;BME280;53177;52.648;1.214;2022-11-20T06:15:23;100300.41;;;4.15;100.00
66381;BME280;53177;52.648;1.214;2022-11-20T06:17:52;100294.25;;;4.14;100.00
66381;BME280;53177;52.648;1.214;2022-11-20T06:20:19;100302.41;;;4.19;100.00
66381;BME280;53177;52.648;1.214;2022-11-20T06:22:45;100293.41;;;4.20;100.00
66381;BME280;53177;52.648;1.214;2022-11-20T06:25:11;100293.41;;;4.20;100.00
66381;BME280;53177;52.648;1.214;2022-11-20T06:27:36;100286.84;;;4.23;100.00
66381;BME280;53177;52.648;1.214;2022-11-20T06:30:03;100289.72;;;4.21;100.00
66381;BME280;53177;52.648;1.214;2022-11-20T06:32:29;100286.41;;;4.26;100.00
66381;BME280;53177;52.648;1.214;2022-11-20T06:34:54;100280.88;;;4.27;100.00
66381;BME280;53177;52.648;1.214;2022-11-20T06:37:20;100280.28;;;4.25;100.00
66381;BME280;53177;52.648;1.214;2022-11-20T06:39:45;100275.78;;;4.26;100.00
66381;BME280;53177;52.648;1.214;2022-11-20T06:42:11;100273.91;;;4.33;100.00
66381;BME280;53177;52.648;1.214;2022-11-20T06:44:36;100273.66;;;4.35;100.00
66381;BME280;53177;52.648;1.214;2022-11-20T06:47:01;100267.31;;;4.36;100.00
66381;BME280;53177;52.648;1.214;2022-11-20T06:49:27;100259.94;;;4.38;100.00
66381;BME280;53177;52.648;1.214;2022-11-20T06:51:54;100258.44;;;4.42;100.00
66381;BME280;53177;52.648;1.214;2022-11-20T06:54:21;100255.63;;;4.37;100.00
66381;BME280;53177;52.648;1.214;2022-11-20T06:56:47;100241.66;;;4.41;100.00
66381;BME280;53177;52.648;1.214;2022-11-20T06:59:13;100237.16;;;4.42;100.00
66381;BME280;53177;52.648;1.214;2022-11-20T07:01:41;100236.31;;;4.48;100.00
66381;BME280;53177;52.648;1.214;2022-11-20T07:04:10;100242.81;;;4.52;100.00
66381;BME280;53177;52.648;1.214;2022-11-20T07:06:46;100240.97;;;4.52;100.00
66381;BME280;53177;52.648;1.214;2022-11-20T07:09:15;100230.09;;;4.54;100.00
66381;BME280;53177;52.648;1.214;2022-11-20T07:11:41;100232.56;;;4.55;100.00
66381;BME280;53177;52.648;1.214;2022-11-20T07:14:07;100223.53;;;4.56;100.00
66381;BME280;53177;52.648;1.214;2022-11-20T07:16:32;100224.56;;;4.55;100.00
66381;BME280;53177;52.648;1.214;2022-11-20T07:18:57;100219.84;;;4.57;100.00
66381;BME280;53177;52.648;1.214;2022-11-20T07:21:23;100216.13;;;4.59;100.00
66381;BME280;53177;52.648;1.214;2022-11-20T07:23:48;100214.50;;;4.57;100.00
66381;BME280;53177;52.648;1.214;2022-11-20T07:26:14;100208.53;;;4.62;100.00
66381;BME280;53177;52.648;1.214;2022-11-20T07:28:39;100197.88;;;4.62;100.00
66381;BME280;53177;52.648;1.214;2022-11-20T07:31:10;100198.13;;;4.61;100.00
66381;BME280;53177;52.648;1.214;2022-11-20T07:33:38;100195.22;;;4.62;100.00
66381;BME280;53177;52.648;1.214;2022-11-20T07:36:04;100189.47;;;4.65;100.00
66381;BME280;53177;52.648;1.214;2022-11-20T07:38:29;100178.00;;;4.65;100.00
66381;BME280;53177;52.648;1.214;2022-11-20T07:40:56;100185.75;;;4.66;100.00
66381;BME280;53177;52.648;1.214;2022-11-20T07:43:23;100189.84;;;4.69;100.00
66381;BME280;53177;52.648;1.214;2022-11-20T07:45:49;100188.34;;;4.73;100.00
66381;BME280;53177;52.648;1.214;2022-11-20T07:48:14;100175.25;;;4.71;100.00
66381;BME280;53177;52.648;1.214;2022-11-20T07:50:40;100181.19;;;4.73;100.00
66381;BME280;53177;52.648;1.214;2022-11-20T07:53:05;100187.53;;;4.72;100.00
66381;BME280;53177;52.648;1.214;2022-11-20T07:55:32;100179.09;;;4.75;100.00
66381;BME280;53177;52.648;1.214;2022-11-20T07:57:57;100177.03;;;4.77;100.00
66381;BME280;53177;52.648;1.214;2022-11-20T08:00:25;100179.00;;;4.82;100.00
66381;BME280;53177;52.648;1.214;2022-11-20T08:02:51;100175.53;;;4.81;100.00
66381;BME280;53177;52.648;1.214;2022-11-20T08:05:17;100167.78;;;4.80;100.00
66381;BME280;53177;52.648;1.214;2022-11-20T08:07:43;100163.88;;;4.82;100.00
66381;BME280;53177;52.648;1.214;2022-11-20T08:10:11;100166.31;;;4.84;100.00
66381;BME280;53177;52.648;1.214;2022-11-20T08:12:45;100158.31;;;4.84;100.00
66381;BME280;53177;52.648;1.214;2022-11-20T08:15:30;100164.59;;;4.90;100.00
66381;BME280;53177;52.648;1.214;2022-11-20T08:18:08;100153.13;;;4.89;100.00
66381;BME280;53177;52.648;1.214;2022-11-20T08:20:34;100157.94;;;4.99;100.00
66381;BME280;53177;52.648;1.214;2022-11-20T08:23:04;100150.41;;;4.96;100.00
66381;BME280;53177;52.648;1.214;2022-11-20T08:25:32;100154.47;;;4.98;100.00
66381;BME280;53177;52.648;1.214;2022-11-20T08:28:05;100148.91;;;5.00;100.00
66381;BME280;53177;52.648;1.214;2022-11-20T08:30:31;100153.34;;;5.06;100.00
66381;BME280;53177;52.648;1.214;2022-11-20T08:33:02;100145.94;;;5.08;100.00
66381;BME280;53177;52.648;1.214;2022-11-20T08:35:28;100154.53;;;5.10;100.00
66381;BME280;53177;52.648;1.214;2022-11-20T08:37:53;100150.25;;;5.09;100.00
66381;BME280;53177;52.648;1.214;2022-11-20T08:40:19;100155.09;;;5.12;100.00
66381;BME280;53177;52.648;1.214;2022-11-20T08:42:49;100154.53;;;5.10;100.00
66381;BME280;53177;52.648;1.214;2022-11-20T08:45:16;100150.00;;;5.11;100.00
66381;BME280;53177;52.648;1.214;2022-11-20T08:47:42;100147.09;;;5.12;100.00
66381;BME280;53177;52.648;1.214;2022-11-20T08:50:08;100154.88;;;5.14;100.00
66381;BME280;53177;52.648;1.214;2022-11-20T08:52:34;100156.88;;;5.18;100.00
66381;BME280;53177;52.648;1.214;2022-11-20T08:54:59;100154.22;;;5.18;100.00
66381;BME280;53177;52.648;1.214;2022-11-20T08:57:25;100147.22;;;5.17;100.00
66381;BME280;53177;52.648;1.214;2022-11-20T08:59:50;100135.56;;;5.18;100.00
66381;BME280;53177;52.648;1.214;2022-11-20T09:02:15;100141.03;;;5.23;100.00
66381;BME280;53177;52.648;1.214;2022-11-20T09:04:41;100133.84;;;5.24;100.00
66381;BME280;53177;52.648;1.214;2022-11-20T09:07:06;100135.09;;;5.21;100.00
66381;BME280;53177;52.648;1.214;2022-11-20T09:09:32;100135.91;;;5.22;100.00
66381;BME280;53177;52.648;1.214;2022-11-20T09:11:58;100132.56;;;5.26;100.00
66381;BME280;53177;52.648;1.214;2022-11-20T09:14:23;100130.50;;;5.28;100.00
66381;BME280;53177;52.648;1.214;2022-11-20T09:16:56;100127.84;;;5.28;100.00
66381;BME280;53177;52.648;1.214;2022-11-20T09:19:23;100126.34;;;5.32;100.00
66381;BME280;53177;52.648;1.214;2022-11-20T09:21:49;100123.06;;;5.30;100.00
66381;BME280;53177;52.648;1.214;2022-11-20T09:24:14;100122.88;;;5.32;100.00
66381;BME280;53177;52.648;1.214;2022-11-20T09:26:40;100120.53;;;5.36;100.00
66381;BME280;53177;52.648;1.214;2022-11-20T09:29:05;100112.34;;;5.37;100.00
66381;BME280;53177;52.648;1.214;2022-11-20T09:31:31;100116.38;;;5.40;100.00
66381;BME280;53177;52.648;1.214;2022-11-20T09:33:57;100123.34;;;5.41;100.00
66381;BME280;53177;52.648;1.214;2022-11-20T09:36:22;100117.56;;;5.44;100.00
66381;BME280;53177;52.648;1.214;2022-11-20T09:38:48;100119.19;;;5.45;100.00
66381;BME280;53177;52.648;1.214;2022-11-20T09:46:45;100123.25;;;5.47;100.00
66381;BME280;53177;52.648;1.214;2022-11-20T09:52:32;100115.16;;;5.54;100.00
66381;BME280;53177;52.648;1.214;2022-11-20T09:55:00;100109.22;;;5.52;100.00
66381;BME280;53177;52.648;1.214;2022-11-20T09:57:34;100104.72;;;5.52;100.00
66381;BME280;53177;52.648;1.214;2022-11-20T10:00:03;100106.25;;;5.60;100.00
66381;BME280;53177;52.648;1.214;2022-11-20T10:05:34;100097.19;;;5.61;100.00
66381;BME280;53177;52.648;1.214;2022-11-20T10:08:16;100090.25;;;5.60;100.00
66381;BME280;53177;52.648;1.214;2022-11-20T10:10:48;100085.03;;;5.65;100.00
66381;BME280;53177;52.648;1.214;2022-11-20T10:13:43;100071.25;;;5.68;100.00
66381;BME280;53177;52.648;1.214;2022-11-20T10:24:58;100068.72;;;5.97;100.00
66381;BME280;53177;52.648;1.214;2022-11-20T10:30:16;100070.59;;;6.08;100.00
66381;BME280;53177;52.648;1.214;2022-11-20T10:32:46;100058.72;;;6.16;100.00
66381;BME280;53177;52.648;1.214;2022-11-20T10:35:20;100061.72;;;6.19;100.00
66381;BME280;53177;52.648;1.214;2022-11-20T10:38:01;100059.66;;;6.21;100.00
66381;BME280;53177;52.648;1.214;2022-11-20T10:40:38;100056.50;;;6.24;100.00
66381;BME280;53177;52.648;1.214;2022-11-20T10:43:19;100065.66;;;6.28;100.00
66381;BME280;53177;52.648;1.214;2022-11-20T10:45:52;100062.53;;;6.31;100.00
66381;BME280;53177;52.648;1.214;2022-11-20T10:48:23;100047.00;;;6.28;100.00
66381;BME280;53177;52.648;1.214;2022-11-20T10:54:33;100048.34;;;6.43;100.00
66381;BME280;53177;52.648;1.214;2022-11-20T10:57:21;100044.75;;;6.49;100.00
66381;BME280;53177;52.648;1.214;2022-11-20T11:02:20;100043.06;;;6.59;100.00
66381;BME280;53177;52.648;1.214;2022-11-20T11:04:49;100045.81;;;6.65;100.00
66381;BME280;53177;52.648;1.214;2022-11-20T11:07:16;100037.50;;;6.61;100.00
66381;BME280;53177;52.648;1.214;2022-11-20T11:09:52;100035.88;;;6.60;100.00
66381;BME280;53177;52.648;1.214;2022-11-20T11:12:19;100036.53;;;6.67;100.00
66381;BME280;53177;52.648;1.214;2022-11-20T11:14:51;100032.34;;;6.71;100.00
66381;BME280;53177;52.648;1.214;2022-11-20T11:17:27;100038.84;;;6.75;100.00
66381;BME280;53177;52.648;1.214;2022-11-20T11:20:15;100029.78;;;6.76;100.00
66381;BME280;53177;52.648;1.214;2022-11-20T11:22:56;100031.38;;;6.77;100.00
66381;BME280;53177;52.648;1.214;2022-11-20T11:25:29;100023.97;;;6.79;100.00
66381;BME280;53177;52.648;1.214;2022-11-20T11:28:00;100017.19;;;6.89;100.00
66381;BME280;53177;52.648;1.214;2022-11-20T11:30:27;100010.41;;;6.98;100.00
66381;BME280;53177;52.648;1.214;2022-11-20T11:33:11;100009.59;;;7.14;100.00
66381;BME280;53177;52.648;1.214;2022-11-20T11:35:48;100012.03;;;7.32;100.00
66381;BME280;53177;52.648;1.214;2022-11-20T11:38:17;100001.91;;;7.34;100.00
66381;BME280;53177;52.648;1.214;2022-11-20T11:40:46;100000.44;;;7.44;100.00
66381;BME280;53177;52.648;1.214;2022-11-20T11:43:24;100003.03;;;7.39;100.00
66381;BME280;53177;52.648;1.214;2022-11-20T11:46:25;99991.94;;;7.30;100.00
66381;BME280;53177;52.648;1.214;2022-11-20T11:49:00;99991.75;;;7.37;100.00
66381;BME280;53177;52.648;1.214;2022-11-20T11:51:53;99989.28;;;7.30;100.00
66381;BME280;53177;52.648;1.214;2022-11-20T11:54:31;99991.69;;;7.31;100.00
66381;BME280;53177;52.648;1.214;2022-11-20T11:57:03;99990.16;;;7.35;100.00
66381;BME280;53177;52.648;1.214;2022-11-20T11:59:54;99988.06;;;7.38;100.00
66381;BME280;53177;52.648;1.214;2022-11-20T12:02:36;99985.63;;;7.36;100.00
66381;BME280;53177;52.648;1.214;2022-11-20T12:07:42;99998.56;;;7.27;100.00
66381;BME280;53177;52.648;1.214;2022-11-20T12:10:43;99989.81;;;7.32;100.00
66381;BME280;53177;52.648;1.214;2022-11-20T12:16:02;99997.53;;;7.28;100.00
66381;BME280;53177;52.648;1.214;2022-11-20T12:18:28;99993.16;;;7.39;100.00
66381;BME280;53177;52.648;1.214;2022-11-20T12:23:58;99992.69;;;7.25;100.00
66381;BME280;53177;52.648;1.214;2022-11-20T12:35:07;99990.47;;;7.22;100.00
66381;BME280;53177;52.648;1.214;2022-11-20T12:43:23;99974.31;;;7.29;100.00
66381;BME280;53177;52.648;1.214;2022-11-20T12:46:22;99972.91;;;7.43;100.00
66381;BME280;53177;52.648;1.214;2022-11-20T12:49:02;99970.56;;;7.47;100.00
66381;BME280;53177;52.648;1.214;2022-11-20T12:54:34;99975.44;;;7.72;100.00
66381;BME280;53177;52.648;1.214;2022-11-20T12:57:40;99972.84;;;7.99;100.00
66381;BME280;53177;52.648;1.214;2022-11-20T13:05:27;99967.25;;;7.78;100.00
66381;BME280;53177;52.648;1.214;2022-11-20T13:07:57;99971.22;;;7.76;100.00
66381;BME280;53177;52.648;1.214;2022-11-20T13:13:41;99963.03;;;7.82;100.00
66381;BME280;53177;52.648;1.214;2022-11-20T13:16:29;99971.66;;;7.90;100.00
66381;BME280;53177;52.648;1.214;2022-11-20T13:19:02;99964.81;;;7.99;100.00
66381;BME280;53177;52.648;1.214;2022-11-20T13:21:37;99969.63;;;7.97;100.00
66381;BME280;53177;52.648;1.214;2022-11-20T13:26:44;99963.69;;;8.17;100.00
66381;BME280;53177;52.648;1.214;2022-11-20T13:29:16;99965.34;;;8.18;100.00
66381;BME280;53177;52.648;1.214;2022-11-20T13:31:45;99965.63;;;8.21;100.00
66381;BME280;53177;52.648;1.214;2022-11-20T13:34:23;99970.47;;;8.24;100.00
66381;BME280;53177;52.648;1.214;2022-11-20T13:36:52;99964.63;;;8.27;100.00
66381;BME280;53177;52.648;1.214;2022-11-20T13:39:44;99968.97;;;8.33;100.00
66381;BME280;53177;52.648;1.214;2022-11-20T13:44:44;99961.59;;;8.41;100.00
66381;BME280;53177;52.648;1.214;2022-11-20T13:47:26;99970.44;;;8.41;100.00
66381;BME280;53177;52.648;1.214;2022-11-20T13:49:52;99968.50;;;8.37;100.00
66381;BME280;53177;52.648;1.214;2022-11-20T13:52:50;99979.75;;;8.39;100.00
66381;BME280;53177;52.648;1.214;2022-11-20T14:00:28;99988.59;;;8.39;100.00
66381;BME280;53177;52.648;1.214;2022-11-20T14:05:36;100004.22;;;8.25;100.00
66381;BME280;53177;52.648;1.214;2022-11-20T14:08:05;100003.59;;;8.18;100.00
66381;BME280;53177;52.648;1.214;2022-11-20T14:10:32;99999.38;;;8.22;100.00
66381;BME280;53177;52.648;1.214;2022-11-20T14:12:57;100000.19;;;8.23;100.00
66381;BME280;53177;52.648;1.214;2022-11-20T14:15:32;99993.00;;;8.28;100.00
66381;BME280;53177;52.648;1.214;2022-11-20T14:17:59;99994.22;;;8.38;100.00
66381;BME280;53177;52.648;1.214;2022-11-20T14:20:30;99988.78;;;8.32;100.00